Terminal Aerodrome Forecast
Issued by NWS

Home | Current Version | Previous Version | Text Only | Print | Product List | Glossary On
Versions: 1 2 3 4 5 6 7 8 9 10 11 12 13 14 15 16 17 18 19 20
000
FTUS45 KABQ 211100
TAFROW
TAF
KROW 211129Z 2112/2212 02003KT P6SM VCSH BKN035
      TEMPO 2112/2115 6SM -RA BR OVC025
     FM211700 16006KT P6SM VCSH OVC050
     FM212000 16010KT P6SM VCTS OVC050CB
     FM212300 16009KT P6SM BKN050
     FM220500 20004KT P6SM BKN025
     FM221000 VRB03KT 4SM BR OVC015=

USA.gov is the U.S. government's official web portal to all federal, state and local government web resources and services.